Time,TemperatureF,DewpointF,PressureIn,WindDirection,WindDirectionDegrees,WindSpeedMPH,WindSpeedGustMPH,Humidity,HourlyPrecipIn,Conditions,Clouds,dailyrainin,SoftwareType,DateUTC
2013-01-07 00:03:00,45.0,44.0,30.15,NE,34,0.0,3.0,96,0.00,,,0.00,,2013-01-07 05:03:00,
2013-01-07 00:12:00,45.0,44.0,30.15,NE,34,0.0,3.0,96,0.00,,,0.00,,2013-01-07 05:12:00,
2013-01-07 00:22:00,45.0,44.0,30.15,ENE,77,0.0,3.0,96,0.00,,,0.00,,2013-01-07 05:22:00,
2013-01-07 00:33:00,45.0,44.0,30.15,ENE,77,0.0,3.0,96,0.00,,,0.00,,2013-01-07 05:33:00,
2013-01-07 00:42:00,45.0,44.0,30.15,ENE,77,0.0,3.0,96,0.00,,,0.00,,2013-01-07 05:42:00,
2013-01-07 00:52:00,45.0,44.0,30.15,WNW,298,1.0,4.0,96,0.00,,,0.00,,2013-01-07 05:52:00,
2013-01-07 01:02:00,45.0,44.0,30.15,WNW,298,1.0,4.0,96,0.00,,,0.00,,2013-01-07 06:02:00,
2013-01-07 01:12:00,45.0,44.0,30.15,WNW,298,1.0,4.0,96,0.00,,,0.00,,2013-01-07 06:12:00,
2013-01-07 01:22:00,44.0,43.0,30.16,WNW,288,0.0,6.0,95,0.00,,,0.00,,2013-01-07 06:22:00,
2013-01-07 01:32:00,44.0,43.0,30.16,North,1,1.0,5.0,95,0.00,,,0.00,,2013-01-07 06:32:00,
2013-01-07 01:42:00,44.0,43.0,30.16,North,1,1.0,5.0,95,0.00,,,0.00,,2013-01-07 06:42:00,
2013-01-07 01:52:00,44.0,42.0,30.17,WNW,302,0.0,2.0,94,0.00,,,0.00,,2013-01-07 06:52:00,
2013-01-07 02:02:00,44.0,42.0,30.17,WNW,289,0.0,4.0,94,0.00,,,0.00,,2013-01-07 07:02:00,
2013-01-07 02:12:00,44.0,42.0,30.17,WNW,289,0.0,4.0,94,0.00,,,0.00,,2013-01-07 07:12:00,
2013-01-07 02:22:00,44.0,42.0,30.18,NNW,327,0.0,3.0,93,0.00,,,0.00,,2013-01-07 07:22:00,
2013-01-07 02:33:00,43.0,41.0,30.18,WNW,301,0.0,4.0,92,0.00,,,0.00,,2013-01-07 07:33:00,
2013-01-07 02:42:00,43.0,41.0,30.18,WNW,301,0.0,4.0,92,0.00,,,0.00,,2013-01-07 07:42:00,
2013-01-07 02:53:00,43.0,41.0,30.19,NW,309,1.0,3.0,91,0.00,,,0.00,,2013-01-07 07:53:00,
2013-01-07 03:03:00,42.0,39.0,30.19,NW,304,0.0,4.0,90,0.00,,,0.00,,2013-01-07 08:03:00,
2013-01-07 03:12:00,42.0,39.0,30.19,NW,304,0.0,4.0,90,0.00,,,0.00,,2013-01-07 08:12:00,
2013-01-07 03:22:00,41.0,38.0,30.19,NW,309,0.0,4.0,90,0.00,,,0.00,,2013-01-07 08:22:00,
2013-01-07 03:33:00,41.0,39.0,30.20,WNW,291,0.0,3.0,91,0.00,,,0.00,,2013-01-07 08:33:00,
2013-01-07 03:42:00,41.0,39.0,30.20,WNW,291,0.0,3.0,91,0.00,,,0.00,,2013-01-07 08:42:00,
2013-01-07 03:53:00,40.0,38.0,30.20,WNW,300,0.0,2.0,91,0.00,,,0.00,,2013-01-07 08:53:00,
2013-01-07 04:02:00,40.0,38.0,30.20,NW,312,0.0,1.0,92,0.00,,,0.00,,2013-01-07 09:02:00,
2013-01-07 04:12:00,40.0,38.0,30.20,NW,312,0.0,1.0,92,0.00,,,0.00,,2013-01-07 09:12:00,
2013-01-07 04:23:00,40.0,38.0,30.20,NW,312,0.0,1.0,92,0.00,,,0.00,,2013-01-07 09:23:00,
2013-01-07 04:32:00,39.0,37.0,30.21,WNW,295,0.0,2.0,93,0.00,,,0.00,,2013-01-07 09:32:00,
2013-01-07 04:42:00,39.0,37.0,30.21,WNW,295,0.0,2.0,93,0.00,,,0.00,,2013-01-07 09:42:00,
2013-01-07 04:53:00,38.0,36.0,30.22,WNW,297,0.0,1.0,94,0.00,,,0.00,,2013-01-07 09:53:00,
2013-01-07 05:02:00,38.0,36.0,30.22,WNW,287,0.0,1.0,94,0.00,,,0.00,,2013-01-07 10:02:00,
2013-01-07 05:12:00,38.0,36.0,30.22,WNW,287,0.0,1.0,94,0.00,,,0.00,,2013-01-07 10:12:00,
2013-01-07 05:22:00,38.0,36.0,30.22,WNW,287,0.0,1.0,94,0.00,,,0.00,,2013-01-07 10:22:00,
2013-01-07 05:32:00,38.0,36.0,30.22,WNW,287,0.0,1.0,94,0.00,,,0.00,,2013-01-07 10:32:00,
2013-01-07 05:42:00,38.0,36.0,30.22,WNW,287,0.0,1.0,94,0.00,,,0.00,,2013-01-07 10:42:00,
2013-01-07 05:52:00,37.0,35.0,30.24,WNW,293,0.0,1.0,94,0.00,,,0.00,,2013-01-07 10:52:00,
2013-01-07 06:02:00,37.0,35.0,30.24,NW,309,0.0,1.0,94,0.00,,,0.00,,2013-01-07 11:02:00,
2013-01-07 06:12:00,37.0,35.0,30.24,NW,309,0.0,1.0,94,0.00,,,0.00,,2013-01-07 11:12:00,
2013-01-07 06:23:00,37.0,36.0,30.26,NW,307,0.0,1.0,95,0.00,,,0.00,,2013-01-07 11:23:00,
2013-01-07 06:33:00,37.0,35.0,30.26,WNW,297,0.0,1.0,94,0.00,,,0.00,,2013-01-07 11:33:00,
2013-01-07 06:43:00,37.0,35.0,30.26,WNW,297,0.0,1.0,94,0.00,,,0.00,,2013-01-07 11:43:00,
2013-01-07 06:53:00,36.0,34.0,30.27,WNW,301,0.0,1.0,94,0.00,,,0.00,,2013-01-07 11:53:00,
2013-01-07 07:03:00,36.0,35.0,30.28,WNW,298,0.0,2.0,95,0.00,,,0.00,,2013-01-07 12:03:00,
2013-01-07 07:12:00,36.0,35.0,30.29,WNW,302,0.0,2.0,95,0.00,,,0.00,,2013-01-07 12:12:00,
2013-01-07 07:23:00,36.0,35.0,30.29,WNW,302,0.0,2.0,95,0.00,,,0.00,,2013-01-07 12:23:00,
2013-01-07 07:33:00,36.0,34.0,30.30,WNW,294,0.0,2.0,94,0.00,,,0.00,,2013-01-07 12:33:00,
2013-01-07 07:43:00,36.0,34.0,30.30,WNW,294,0.0,2.0,94,0.00,,,0.00,,2013-01-07 12:43:00,
2013-01-07 07:53:00,36.0,34.0,30.30,WNW,301,0.0,2.0,94,0.00,,,0.00,,2013-01-07 12:53:00,
2013-01-07 08:03:00,37.0,35.0,30.32,NW,307,1.0,2.0,92,0.00,,,0.00,,2013-01-07 13:03:00,
2013-01-07 08:12:00,37.0,35.0,30.32,NW,307,1.0,2.0,92,0.00,,,0.00,,2013-01-07 13:12:00,
2013-01-07 08:23:00,37.0,35.0,30.32,WNW,300,0.0,2.0,91,0.00,,,0.00,,2013-01-07 13:23:00,
2013-01-07 08:33:00,38.0,35.0,30.34,NW,308,2.0,6.0,90,0.00,,,0.00,,2013-01-07 13:33:00,
2013-01-07 08:43:00,38.0,35.0,30.34,NW,308,2.0,6.0,90,0.00,,,0.00,,2013-01-07 13:43:00,
2013-01-07 08:53:00,40.0,36.0,30.34,NW,311,1.0,5.0,87,0.00,,,0.00,,2013-01-07 13:53:00,
2013-01-07 09:03:00,41.0,37.0,30.35,NW,316,2.0,6.0,84,0.00,,,0.00,,2013-01-07 14:03:00,
2013-01-07 09:13:00,41.0,37.0,30.35,NW,316,2.0,6.0,84,0.00,,,0.00,,2013-01-07 14:13:00,
2013-01-07 09:23:00,42.0,37.0,30.37,WNW,302,2.0,6.0,82,0.00,,,0.00,,2013-01-07 14:23:00,
2013-01-07 09:33:00,43.0,38.0,30.37,WNW,302,1.0,6.0,82,0.00,,,0.00,,2013-01-07 14:33:00,
2013-01-07 09:43:00,43.0,38.0,30.37,WNW,302,1.0,6.0,82,0.00,,,0.00,,2013-01-07 14:43:00,
2013-01-07 09:53:00,44.0,38.0,30.38,NW,305,2.0,7.0,79,0.00,,,0.00,,2013-01-07 14:53:00,
2013-01-07 10:03:00,46.0,39.0,30.39,NW,324,1.0,5.0,76,0.00,,,0.00,,2013-01-07 15:03:00,
2013-01-07 10:12:00,46.0,39.0,30.39,NW,324,1.0,5.0,76,0.00,,,0.00,,2013-01-07 15:12:00,
2013-01-07 10:23:00,48.0,40.0,30.40,WNW,283,0.0,4.0,73,0.00,,,0.00,,2013-01-07 15:23:00,
2013-01-07 10:33:00,49.0,39.0,30.40,NE,40,2.0,9.0,68,0.00,,,0.00,,2013-01-07 15:33:00,
2013-01-07 10:43:00,49.0,39.0,30.40,NE,40,2.0,9.0,68,0.00,,,0.00,,2013-01-07 15:43:00,
2013-01-07 10:53:00,50.0,39.0,30.40,West,259,1.0,6.0,66,0.00,,,0.00,,2013-01-07 15:53:00,
2013-01-07 11:03:00,50.0,38.0,30.40,WNW,289,2.0,6.0,63,0.00,,,0.00,,2013-01-07 16:03:00,
2013-01-07 11:12:00,50.0,38.0,30.40,WNW,289,2.0,6.0,63,0.00,,,0.00,,2013-01-07 16:12:00,
2013-01-07 11:23:00,51.0,39.0,30.39,North,10,1.0,7.0,63,0.00,,,0.00,,2013-01-07 16:23:00,
2013-01-07 11:33:00,51.0,38.0,30.39,SSE,165,2.0,13.0,61,0.00,,,0.00,,2013-01-07 16:33:00,
2013-01-07 11:43:00,51.0,38.0,30.39,SSE,165,2.0,13.0,61,0.00,,,0.00,,2013-01-07 16:43:00,
2013-01-07 11:53:00,51.0,38.0,30.39,WNW,288,1.0,6.0,60,0.00,,,0.00,,2013-01-07 16:53:00,
2013-01-07 12:03:00,52.0,38.0,30.39,East,91,3.0,8.0,59,0.00,,,0.00,,2013-01-07 17:03:00,
2013-01-07 12:12:00,52.0,38.0,30.39,East,91,3.0,8.0,59,0.00,,,0.00,,2013-01-07 17:12:00,
2013-01-07 12:23:00,52.0,39.0,30.38,WNW,290,3.0,7.0,61,0.00,,,0.00,,2013-01-07 17:23:00,
2013-01-07 12:33:00,52.0,38.0,30.38,ENE,73,2.0,7.0,58,0.00,,,0.00,,2013-01-07 17:33:00,
2013-01-07 12:42:00,52.0,38.0,30.38,ENE,73,2.0,7.0,58,0.00,,,0.00,,2013-01-07 17:42:00,
2013-01-07 12:53:00,52.0,38.0,30.38,SW,222,0.0,6.0,59,0.00,,,0.00,,2013-01-07 17:53:00,
2013-01-07 13:03:00,52.0,38.0,30.37,SE,124,3.0,9.0,58,0.00,,,0.00,,2013-01-07 18:03:00,
2013-01-07 13:13:00,52.0,38.0,30.37,SE,124,3.0,9.0,58,0.00,,,0.00,,2013-01-07 18:13:00,
2013-01-07 13:23:00,52.0,39.0,30.38,East,87,3.0,8.0,60,0.00,,,0.00,,2013-01-07 18:23:00,
2013-01-07 13:33:00,53.0,39.0,30.38,East,97,0.0,8.0,59,0.00,,,0.00,,2013-01-07 18:33:00,
2013-01-07 13:43:00,53.0,39.0,30.38,East,97,0.0,8.0,59,0.00,,,0.00,,2013-01-07 18:43:00,
2013-01-07 13:53:00,52.0,39.0,30.37,ENE,61,2.0,6.0,61,0.00,,,0.00,,2013-01-07 18:53:00,
2013-01-07 14:03:00,52.0,39.0,30.38,NE,51,4.0,18.0,60,0.00,,,0.00,,2013-01-07 19:03:00,
2013-01-07 14:12:00,52.0,39.0,30.38,NE,51,4.0,18.0,60,0.00,,,0.00,,2013-01-07 19:12:00,
2013-01-07 14:23:00,51.0,40.0,30.38,NE,38,4.0,9.0,65,0.00,,,0.00,,2013-01-07 19:23:00,
2013-01-07 14:33:00,50.0,40.0,30.38,ENE,71,4.0,10.0,68,0.00,,,0.00,,2013-01-07 19:33:00,
2013-01-07 14:43:00,50.0,40.0,30.38,ENE,71,4.0,10.0,68,0.00,,,0.00,,2013-01-07 19:43:00,
2013-01-07 14:53:00,50.0,41.0,30.39,East,81,4.0,9.0,72,0.00,,,0.00,,2013-01-07 19:53:00,
2013-01-07 15:03:00,49.0,40.0,30.39,East,86,4.0,11.0,71,0.00,,,0.00,,2013-01-07 20:03:00,
2013-01-07 15:12:00,49.0,40.0,30.39,East,86,4.0,11.0,71,0.00,,,0.00,,2013-01-07 20:12:00,
2013-01-07 15:23:00,50.0,39.0,30.40,ENE,68,4.0,9.0,66,0.00,,,0.00,,2013-01-07 20:23:00,
2013-01-07 15:33:00,49.0,39.0,30.41,East,84,4.0,8.0,67,0.00,,,0.00,,2013-01-07 20:33:00,
2013-01-07 15:42:00,49.0,39.0,30.41,East,84,4.0,8.0,67,0.00,,,0.00,,2013-01-07 20:42:00,
2013-01-07 15:53:00,49.0,40.0,30.41,East,94,3.0,7.0,71,0.00,,,0.00,,2013-01-07 20:53:00,
2013-01-07 16:03:00,49.0,39.0,30.41,ENE,74,4.0,8.0,69,0.00,,,0.00,,2013-01-07 21:03:00,
2013-01-07 16:12:00,49.0,39.0,30.41,ENE,74,4.0,8.0,69,0.00,,,0.00,,2013-01-07 21:12:00,
2013-01-07 16:23:00,49.0,39.0,30.42,ENE,63,1.0,7.0,68,0.00,,,0.00,,2013-01-07 21:23:00,
2013-01-07 16:33:00,48.0,38.0,30.42,ENE,59,1.0,4.0,69,0.00,,,0.00,,2013-01-07 21:33:00,
2013-01-07 16:43:00,48.0,38.0,30.42,ENE,59,1.0,4.0,69,0.00,,,0.00,,2013-01-07 21:43:00,
2013-01-07 16:53:00,48.0,38.0,30.43,SE,134,1.0,5.0,68,0.00,,,0.00,,2013-01-07 21:53:00,
2013-01-07 17:03:00,47.0,37.0,30.43,NNE,13,0.0,4.0,68,0.00,,,0.00,,2013-01-07 22:03:00,
2013-01-07 17:12:00,47.0,37.0,30.43,NNE,13,0.0,4.0,68,0.00,,,0.00,,2013-01-07 22:12:00,
2013-01-07 17:23:00,47.0,37.0,30.43,NNE,13,0.0,4.0,68,0.00,,,0.00,,2013-01-07 22:23:00,
2013-01-07 17:33:00,46.0,40.0,30.43,NW,311,0.0,6.0,78,0.00,,,0.00,,2013-01-07 22:33:00,
2013-01-07 17:43:00,46.0,40.0,30.43,NW,311,0.0,6.0,78,0.00,,,0.00,,2013-01-07 22:43:00,
2013-01-07 17:53:00,45.0,40.0,30.44,ENE,65,1.0,4.0,81,0.00,,,0.00,,2013-01-07 22:53:00,
2013-01-07 18:02:00,45.0,40.0,30.44,East,89,2.0,6.0,84,0.00,,,0.00,,2013-01-07 23:02:00,
2013-01-07 18:12:00,45.0,40.0,30.44,East,89,2.0,6.0,84,0.00,,,0.00,,2013-01-07 23:12:00,
2013-01-07 18:23:00,45.0,40.0,30.44,NNE,30,3.0,7.0,84,0.00,,,0.00,,2013-01-07 23:23:00,
2013-01-07 18:33:00,45.0,40.0,30.45,ENE,59,3.0,5.0,84,0.00,,,0.00,,2013-01-07 23:33:00,
2013-01-07 18:43:00,45.0,40.0,30.45,ENE,59,3.0,5.0,84,0.00,,,0.00,,2013-01-07 23:43:00,
2013-01-07 18:53:00,45.0,40.0,30.45,ENE,77,2.0,6.0,84,0.00,,,0.00,,2013-01-07 23:53:00,
2013-01-07 19:03:00,45.0,40.0,30.45,ENE,77,2.0,6.0,84,0.00,,,0.00,,2013-01-08 00:03:00,
2013-01-07 19:12:00,45.0,40.0,30.45,ENE,77,2.0,6.0,84,0.00,,,0.00,,2013-01-08 00:12:00,
2013-01-07 19:22:00,45.0,40.0,30.46,NE,40,4.0,7.0,83,0.00,,,0.00,,2013-01-08 00:22:00,
2013-01-07 19:33:00,45.0,40.0,30.46,ENE,72,3.0,7.0,83,0.00,,,0.00,,2013-01-08 00:33:00,
2013-01-07 19:43:00,45.0,40.0,30.46,ENE,72,3.0,7.0,83,0.00,,,0.00,,2013-01-08 00:43:00,
2013-01-07 19:53:00,45.0,40.0,30.46,ENE,69,3.0,8.0,83,0.00,,,0.00,,2013-01-08 00:53:00,
2013-01-07 20:03:00,45.0,40.0,30.46,ENE,69,3.0,8.0,83,0.00,,,0.00,,2013-01-08 01:03:00,
2013-01-07 20:12:00,45.0,40.0,30.46,ENE,69,3.0,8.0,83,0.00,,,0.00,,2013-01-08 01:12:00,
2013-01-07 20:22:00,45.0,40.0,30.46,ENE,75,2.0,5.0,82,0.00,,,0.00,,2013-01-08 01:22:00,
2013-01-07 20:33:00,44.0,39.0,30.47,North,11,0.0,5.0,81,0.00,,,0.00,,2013-01-08 01:33:00,
2013-01-07 20:42:00,44.0,39.0,30.47,North,11,0.0,5.0,81,0.00,,,0.00,,2013-01-08 01:42:00,
2013-01-07 20:52:00,44.0,38.0,30.47,ESE,112,1.0,6.0,79,0.00,,,0.00,,2013-01-08 01:52:00,
2013-01-07 21:02:00,44.0,38.0,30.47,NE,34,3.0,7.0,79,0.00,,,0.00,,2013-01-08 02:02:00,
2013-01-07 21:12:00,44.0,38.0,30.47,NE,34,3.0,7.0,79,0.00,,,0.00,,2013-01-08 02:12:00,
2013-01-07 21:22:00,44.0,38.0,30.47,NE,50,1.0,5.0,79,0.00,,,0.00,,2013-01-08 02:22:00,
2013-01-07 21:33:00,43.0,37.0,30.47,East,79,0.0,2.0,80,0.00,,,0.00,,2013-01-08 02:33:00,
2013-01-07 21:42:00,43.0,37.0,30.47,East,79,0.0,2.0,80,0.00,,,0.00,,2013-01-08 02:42:00,
2013-01-07 21:53:00,43.0,37.0,30.47,East,79,0.0,2.0,80,0.00,,,0.00,,2013-01-08 02:53:00,
2013-01-07 22:03:00,42.0,37.0,30.46,NW,309,0.0,2.0,82,0.00,,,0.00,,2013-01-08 03:03:00,
2013-01-07 22:12:00,42.0,37.0,30.46,NW,309,0.0,2.0,82,0.00,,,0.00,,2013-01-08 03:12:00,
2013-01-07 22:22:00,41.0,37.0,30.46,NW,319,0.0,1.0,84,0.00,,,0.00,,2013-01-08 03:22:00,
2013-01-07 22:32:00,40.0,36.0,30.45,WNW,301,0.0,1.0,86,0.00,,,0.00,,2013-01-08 03:32:00,
2013-01-07 22:43:00,40.0,36.0,30.45,WNW,301,0.0,1.0,86,0.00,,,0.00,,2013-01-08 03:43:00,
2013-01-07 22:53:00,39.0,35.0,30.45,WNW,286,0.0,1.0,87,0.00,,,0.00,,2013-01-08 03:53:00,
2013-01-07 23:02:00,39.0,36.0,30.45,NW,304,0.0,1.0,88,0.00,,,0.00,,2013-01-08 04:02:00,
2013-01-07 23:12:00,39.0,36.0,30.45,NW,304,0.0,1.0,88,0.00,,,0.00,,2013-01-08 04:12:00,
2013-01-07 23:22:00,38.0,35.0,30.44,WNW,301,0.0,1.0,89,0.00,,,0.00,,2013-01-08 04:22:00,
2013-01-07 23:32:00,38.0,35.0,30.45,WNW,293,0.0,1.0,89,0.00,,,0.00,,2013-01-08 04:32:00,
2013-01-07 23:42:00,38.0,35.0,30.45,WNW,293,0.0,1.0,89,0.00,,,0.00,,2013-01-08 04:42:00,
2013-01-07 23:52:00,37.0,34.0,30.44,WNW,301,0.0,2.0,89,0.00,,,0.00,,2013-01-08 04:52:00,